Aviation Digital Data Service (ADDS)

Output produced by METARs form (1401 UTC 29 July 2016)
found at http://aviationweather.gov/adds/metars/
 
KLCH 291131Z 2912/3012 VRB04KT P6SM BKN250 
     FM291500 24005KT P6SM BKN050 
     FM291800 25005KT P6SM VCTS BKN050CB BKN250 
     FM300000 19005KT P6SM SKC